Suttons Bay, MI

1:44 PM EDT on July 03, 2015 (GMT -0400)
South Shore Drive | | Change Station
CLOSE
Current Station
Personal Weather Station
Location: Suttons Bay, MI
Elevation: 597 ft
Nearby Weather Stations

Elev 597 ft 44.97 °N, 85.64 °W | Updated 6 seconds ago

Partly Cloudy
Partly Cloudy
74.6 °F
Feels Like 77 °F
N
1.0
Wind Variable Wind from WSW
Gusts 11.0 mph

Today
High -- | Low -- °F
--% Chance of Precip.
Yesterday
High -- | Low -- °F
Precip. -- in
6:00 AM 9:32 PM
Waning Gibbous, 96% visible
Pressure 29.95 in
Visibility 10.0 miles
Clouds Overcast 25000 ft
Heat Index 77 °F
Dew Point 57 °F
Humidity 54%
Rainfall 0.00 in
Snow Depth Not available.
UV 3 out of 12
Pollen 4.40 out of 12
Air Quality Not available.
Flu Activity Not available.
METAR KTVC 031653Z 26010KT 10SM OVC250 24/11 A2995 RMK AO2 SLP142 T02390111

More Conditions Fewer Conditions

Pressure 29.95 in
Visibility 10.0 miles
Clouds Overcast 25000 ft
Heat Index 77 °F
Dew Point 57 °F
Humidity 54%
Rainfall 0.00 in
Snow Depth Not available.
UV 3 out of 12
Pollen 4.40 out of 12
Air Quality Not available.
Flu Activity Not available.
METAR KTVC 031653Z 26010KT 10SM OVC250 24/11 A2995 RMK AO2 SLP142 T02390111

More Conditions Fewer Conditions

Nowcast | as of 1:00 PM EDT on July 3, 2015

At 2 PM...partly cloudy. Temperature 72. Southwest winds 12 mph. At 4 PM...partly cloudy. Temperature 74. Southwest winds 12 mph. At 6 PM...partly cloudy. Temperature 72. Southwest winds 11 mph. At 8 PM...partly cloudy. Chance of showers. Temperature 69. Southwest winds 10 mph.

×

10-Day Weather Forecast

×

Almanac

Astronomy

Jul. 03, 2015 Rise Set
Actual Time
Civil Twilight
Nautical Twilight
Astronomical Twilight
Moon
Length of Visible Light
Length of Day
Tomorrow will be .
, % of the Moon is Illuminated

Today's Extremes

State Highs State Lows

Community

WunderPhotos

Upload Photos

1,834,727 photos uploaded!

WunderBlogs® & News

Nearby

Air Quality

  Air Quality AQ Index Pollutant
Not available.

Snow Depth

Station Depth Elevation

Earthquake Activity

City Distance Mag. Time & Date
Minimum magnitude displayed is 2.5.

Coastal Water Temperatures

Place Temperature

Stations

Nearby Weather Stations

Station Location Temp. Windchill Dew Point Humidity Wind Precip. Elev Updated Type